sensor_id;sensor_type;location;lat;lon;timestamp;temperature;humidity
981;DHT22;479;53.514;9.994;2023-05-07T00:00:48;9.10;99.90
981;DHT22;479;53.514;9.994;2023-05-07T00:03:16;9.20;99.90
981;DHT22;479;53.514;9.994;2023-05-07T00:05:44;9.20;99.90
981;DHT22;479;53.514;9.994;2023-05-07T00:08:12;9.20;99.90
981;DHT22;479;53.514;9.994;2023-05-07T00:10:39;9.10;99.90
981;DHT22;479;53.514;9.994;2023-05-07T00:13:07;9.10;99.90
981;DHT22;479;53.514;9.994;2023-05-07T00:15:34;9.10;99.90
981;DHT22;479;53.514;9.994;2023-05-07T00:18:01;9.20;99.90
981;DHT22;479;53.514;9.994;2023-05-07T00:20:28;9.20;99.90
981;DHT22;479;53.514;9.994;2023-05-07T00:22:55;9.20;99.90
981;DHT22;479;53.514;9.994;2023-05-07T00:25:21;9.10;99.90
981;DHT22;479;53.514;9.994;2023-05-07T00:27:48;9.10;99.90
981;DHT22;479;53.514;9.994;2023-05-07T00:30:17;9.10;99.90
981;DHT22;479;53.514;9.994;2023-05-07T00:32:44;9.00;99.90
981;DHT22;479;53.514;9.994;2023-05-07T00:35:11;9.10;99.90
981;DHT22;479;53.514;9.994;2023-05-07T00:37:38;9.10;99.90
981;DHT22;479;53.514;9.994;2023-05-07T00:40:07;9.10;99.90
981;DHT22;479;53.514;9.994;2023-05-07T00:42:34;9.10;99.90
981;DHT22;479;53.514;9.994;2023-05-07T00:45:01;9.10;99.90
981;DHT22;479;53.514;9.994;2023-05-07T00:47:31;9.10;99.90
981;DHT22;479;53.514;9.994;2023-05-07T00:49:58;9.10;99.90
981;DHT22;479;53.514;9.994;2023-05-07T00:52:26;9.10;99.90
981;DHT22;479;53.514;9.994;2023-05-07T00:54:53;9.10;99.90
981;DHT22;479;53.514;9.994;2023-05-07T00:57:21;9.00;99.90
981;DHT22;479;53.514;9.994;2023-05-07T00:59:50;9.10;99.90
981;DHT22;479;53.514;9.994;2023-05-07T01:02:17;9.10;99.90
981;DHT22;479;53.514;9.994;2023-05-07T01:04:45;9.10;99.90
981;DHT22;479;53.514;9.994;2023-05-07T01:07:12;9.20;99.90
981;DHT22;479;53.514;9.994;2023-05-07T01:09:40;9.20;99.90
981;DHT22;479;53.514;9.994;2023-05-07T01:12:07;9.20;99.90
981;DHT22;479;53.514;9.994;2023-05-07T01:14:34;9.20;99.90
981;DHT22;479;53.514;9.994;2023-05-07T01:17:01;9.20;99.90
981;DHT22;479;53.514;9.994;2023-05-07T01:19:29;9.20;99.90
981;DHT22;479;53.514;9.994;2023-05-07T01:22:02;9.20;99.90
981;DHT22;479;53.514;9.994;2023-05-07T01:24:34;9.20;99.90
981;DHT22;479;53.514;9.994;2023-05-07T01:27:04;9.20;99.90
981;DHT22;479;53.514;9.994;2023-05-07T01:29:33;9.20;99.90
981;DHT22;479;53.514;9.994;2023-05-07T01:32:00;9.10;99.90
981;DHT22;479;53.514;9.994;2023-05-07T01:34:31;9.10;99.90
981;DHT22;479;53.514;9.994;2023-05-07T01:36:59;9.10;99.90
981;DHT22;479;53.514;9.994;2023-05-07T01:39:28;9.10;99.90
981;DHT22;479;53.514;9.994;2023-05-07T01:41:57;9.20;99.90
981;DHT22;479;53.514;9.994;2023-05-07T01:44:26;9.20;99.90
981;DHT22;479;53.514;9.994;2023-05-07T01:46:54;9.20;99.90
981;DHT22;479;53.514;9.994;2023-05-07T01:49:21;9.20;99.90
981;DHT22;479;53.514;9.994;2023-05-07T01:51:48;9.20;99.90
981;DHT22;479;53.514;9.994;2023-05-07T01:54:15;9.20;99.90
981;DHT22;479;53.514;9.994;2023-05-07T01:56:43;9.20;99.90
981;DHT22;479;53.514;9.994;2023-05-07T01:59:11;9.20;99.90
981;DHT22;479;53.514;9.994;2023-05-07T02:01:39;9.20;99.90
981;DHT22;479;53.514;9.994;2023-05-07T02:04:06;9.20;99.90
981;DHT22;479;53.514;9.994;2023-05-07T02:06:33;9.10;99.90
981;DHT22;479;53.514;9.994;2023-05-07T02:09:05;9.20;99.90
981;DHT22;479;53.514;9.994;2023-05-07T02:11:32;9.20;99.90
981;DHT22;479;53.514;9.994;2023-05-07T02:13:59;9.20;99.90
981;DHT22;479;53.514;9.994;2023-05-07T02:16:27;9.20;99.90
981;DHT22;479;53.514;9.994;2023-05-07T02:18:54;9.20;99.90
981;DHT22;479;53.514;9.994;2023-05-07T02:21:22;9.20;99.90
981;DHT22;479;53.514;9.994;2023-05-07T02:23:49;9.20;99.90
981;DHT22;479;53.514;9.994;2023-05-07T02:26:16;9.20;99.90
981;DHT22;479;53.514;9.994;2023-05-07T02:28:43;9.20;99.90
981;DHT22;479;53.514;9.994;2023-05-07T02:31:10;9.20;99.90
981;DHT22;479;53.514;9.994;2023-05-07T02:33:38;9.30;99.90
981;DHT22;479;53.514;9.994;2023-05-07T02:36:07;9.20;99.90
981;DHT22;479;53.514;9.994;2023-05-07T02:38:37;9.20;99.90
981;DHT22;479;53.514;9.994;2023-05-07T02:41:04;9.30;99.90
981;DHT22;479;53.514;9.994;2023-05-07T02:43:31;9.30;99.90
981;DHT22;479;53.514;9.994;2023-05-07T02:46:02;9.30;99.90
981;DHT22;479;53.514;9.994;2023-05-07T02:48:29;9.20;99.90
981;DHT22;479;53.514;9.994;2023-05-07T02:50:57;9.20;99.90
981;DHT22;479;53.514;9.994;2023-05-07T02:53:25;9.30;99.90
981;DHT22;479;53.514;9.994;2023-05-07T02:55:52;9.30;99.90
981;DHT22;479;53.514;9.994;2023-05-07T02:58:19;9.30;99.90
981;DHT22;479;53.514;9.994;2023-05-07T03:00:46;9.20;99.90
981;DHT22;479;53.514;9.994;2023-05-07T03:03:22;9.30;99.90
981;DHT22;479;53.514;9.994;2023-05-07T03:05:49;9.20;99.90
981;DHT22;479;53.514;9.994;2023-05-07T03:08:17;9.20;99.90
981;DHT22;479;53.514;9.994;2023-05-07T03:10:44;9.20;99.90
981;DHT22;479;53.514;9.994;2023-05-07T03:13:11;9.30;99.90
981;DHT22;479;53.514;9.994;2023-05-07T03:15:39;9.20;99.90
981;DHT22;479;53.514;9.994;2023-05-07T03:18:05;9.20;99.90
981;DHT22;479;53.514;9.994;2023-05-07T03:20:32;9.10;99.90
981;DHT22;479;53.514;9.994;2023-05-07T03:22:59;9.10;99.90
981;DHT22;479;53.514;9.994;2023-05-07T03:25:27;9.10;99.90
981;DHT22;479;53.514;9.994;2023-05-07T03:27:55;9.20;99.90
981;DHT22;479;53.514;9.994;2023-05-07T03:30:26;9.20;99.90
981;DHT22;479;53.514;9.994;2023-05-07T03:32:53;9.20;99.90
981;DHT22;479;53.514;9.994;2023-05-07T03:35:20;9.10;99.90
981;DHT22;479;53.514;9.994;2023-05-07T03:37:47;9.10;99.90
981;DHT22;479;53.514;9.994;2023-05-07T03:40:15;9.10;99.90
981;DHT22;479;53.514;9.994;2023-05-07T03:42:50;9.10;99.90
981;DHT22;479;53.514;9.994;2023-05-07T03:45:18;9.20;99.90
981;DHT22;479;53.514;9.994;2023-05-07T03:47:52;9.20;99.90
981;DHT22;479;53.514;9.994;2023-05-07T03:50:21;9.20;99.90
981;DHT22;479;53.514;9.994;2023-05-07T03:52:48;9.20;99.90
981;DHT22;479;53.514;9.994;2023-05-07T03:55:18;9.10;99.90
981;DHT22;479;53.514;9.994;2023-05-07T03:57:52;9.10;99.90
981;DHT22;479;53.514;9.994;2023-05-07T04:00:20;9.10;99.90
981;DHT22;479;53.514;9.994;2023-05-07T04:02:47;9.10;99.90
981;DHT22;479;53.514;9.994;2023-05-07T04:05:19;9.10;99.90
981;DHT22;479;53.514;9.994;2023-05-07T04:07:49;9.10;99.90
981;DHT22;479;53.514;9.994;2023-05-07T04:10:20;9.10;99.90
981;DHT22;479;53.514;9.994;2023-05-07T04:12:50;9.10;99.90
981;DHT22;479;53.514;9.994;2023-05-07T04:15:21;9.10;99.90
981;DHT22;479;53.514;9.994;2023-05-07T04:17:48;9.20;99.90
981;DHT22;479;53.514;9.994;2023-05-07T04:20:18;9.20;99.90
981;DHT22;479;53.514;9.994;2023-05-07T04:22:49;9.10;99.90
981;DHT22;479;53.514;9.994;2023-05-07T04:25:16;9.20;99.90
981;DHT22;479;53.514;9.994;2023-05-07T04:27:43;9.20;99.90
981;DHT22;479;53.514;9.994;2023-05-07T04:30:14;9.20;99.90
981;DHT22;479;53.514;9.994;2023-05-07T04:32:41;9.20;99.90
981;DHT22;479;53.514;9.994;2023-05-07T04:35:08;9.20;99.90
981;DHT22;479;53.514;9.994;2023-05-07T04:37:35;9.20;99.90
981;DHT22;479;53.514;9.994;2023-05-07T04:40:03;9.30;99.90
981;DHT22;479;53.514;9.994;2023-05-07T04:42:31;9.30;99.90
981;DHT22;479;53.514;9.994;2023-05-07T04:44:59;9.30;99.90
981;DHT22;479;53.514;9.994;2023-05-07T04:47:28;9.30;99.90
981;DHT22;479;53.514;9.994;2023-05-07T04:49:55;9.30;99.90
981;DHT22;479;53.514;9.994;2023-05-07T04:52:22;9.40;99.90
981;DHT22;479;53.514;9.994;2023-05-07T04:54:49;9.40;99.90
981;DHT22;479;53.514;9.994;2023-05-07T04:57:16;9.40;99.90
981;DHT22;479;53.514;9.994;2023-05-07T04:59:43;9.40;99.90
981;DHT22;479;53.514;9.994;2023-05-07T05:02:10;9.40;99.90
981;DHT22;479;53.514;9.994;2023-05-07T05:04:39;9.40;99.90
981;DHT22;479;53.514;9.994;2023-05-07T05:07:06;9.40;99.90
981;DHT22;479;53.514;9.994;2023-05-07T05:09:33;9.40;99.90
981;DHT22;479;53.514;9.994;2023-05-07T05:12:00;9.40;99.90
981;DHT22;479;53.514;9.994;2023-05-07T05:14:28;9.40;99.90
981;DHT22;479;53.514;9.994;2023-05-07T05:16:55;9.50;99.90
981;DHT22;479;53.514;9.994;2023-05-07T05:19:23;9.40;99.90
981;DHT22;479;53.514;9.994;2023-05-07T05:21:51;9.40;99.90
981;DHT22;479;53.514;9.994;2023-05-07T05:24:18;9.40;99.90
981;DHT22;479;53.514;9.994;2023-05-07T05:26:45;9.40;99.90
981;DHT22;479;53.514;9.994;2023-05-07T05:29:12;9.40;99.90
981;DHT22;479;53.514;9.994;2023-05-07T05:31:41;9.40;99.90
981;DHT22;479;53.514;9.994;2023-05-07T05:34:09;9.40;99.90
981;DHT22;479;53.514;9.994;2023-05-07T05:36:36;9.40;99.90
981;DHT22;479;53.514;9.994;2023-05-07T05:39:05;9.40;99.90
981;DHT22;479;53.514;9.994;2023-05-07T05:41:32;9.40;99.90
981;DHT22;479;53.514;9.994;2023-05-07T05:44:00;9.40;99.90
981;DHT22;479;53.514;9.994;2023-05-07T05:46:27;9.40;99.90
981;DHT22;479;53.514;9.994;2023-05-07T05:48:55;9.40;99.90
981;DHT22;479;53.514;9.994;2023-05-07T05:51:22;9.50;99.90
981;DHT22;479;53.514;9.994;2023-05-07T05:53:49;9.40;99.90
981;DHT22;479;53.514;9.994;2023-05-07T05:56:18;9.50;99.90
981;DHT22;479;53.514;9.994;2023-05-07T05:58:46;9.60;99.90
981;DHT22;479;53.514;9.994;2023-05-07T06:01:14;9.60;99.90
981;DHT22;479;53.514;9.994;2023-05-07T06:03:41;9.60;99.90
981;DHT22;479;53.514;9.994;2023-05-07T06:06:13;9.60;99.90
981;DHT22;479;53.514;9.994;2023-05-07T06:08:42;9.60;99.90
981;DHT22;479;53.514;9.994;2023-05-07T06:11:10;9.70;99.90
981;DHT22;479;53.514;9.994;2023-05-07T06:13:41;9.70;99.90
981;DHT22;479;53.514;9.994;2023-05-07T06:16:08;9.70;99.90
981;DHT22;479;53.514;9.994;2023-05-07T06:18:36;9.70;99.90
981;DHT22;479;53.514;9.994;2023-05-07T06:21:04;9.70;99.90
981;DHT22;479;53.514;9.994;2023-05-07T06:23:33;9.60;99.90
981;DHT22;479;53.514;9.994;2023-05-07T06:26:01;9.70;99.90
981;DHT22;479;53.514;9.994;2023-05-07T06:28:33;9.80;99.90
981;DHT22;479;53.514;9.994;2023-05-07T06:31:15;9.70;99.90
981;DHT22;479;53.514;9.994;2023-05-07T06:33:46;9.80;99.90
981;DHT22;479;53.514;9.994;2023-05-07T06:36:14;9.90;99.90
981;DHT22;479;53.514;9.994;2023-05-07T06:38:41;9.90;99.90
981;DHT22;479;53.514;9.994;2023-05-07T06:41:08;9.80;99.90
981;DHT22;479;53.514;9.994;2023-05-07T06:43:37;9.80;99.90
981;DHT22;479;53.514;9.994;2023-05-07T06:46:28;9.80;99.90
981;DHT22;479;53.514;9.994;2023-05-07T06:48:56;9.80;99.90
981;DHT22;479;53.514;9.994;2023-05-07T06:51:23;9.80;99.90
981;DHT22;479;53.514;9.994;2023-05-07T06:53:50;9.80;99.90
981;DHT22;479;53.514;9.994;2023-05-07T06:56:17;9.90;99.90
981;DHT22;479;53.514;9.994;2023-05-07T06:58:44;9.90;99.90
981;DHT22;479;53.514;9.994;2023-05-07T07:01:11;10.00;99.90
981;DHT22;479;53.514;9.994;2023-05-07T07:03:40;10.00;99.90
981;DHT22;479;53.514;9.994;2023-05-07T07:06:07;10.00;99.90
981;DHT22;479;53.514;9.994;2023-05-07T07:08:34;10.00;99.90
981;DHT22;479;53.514;9.994;2023-05-07T07:11:01;10.10;99.90
981;DHT22;479;53.514;9.994;2023-05-07T07:13:29;10.10;99.90
981;DHT22;479;53.514;9.994;2023-05-07T07:15:56;10.10;99.90
981;DHT22;479;53.514;9.994;2023-05-07T07:18:23;10.20;99.90
981;DHT22;479;53.514;9.994;2023-05-07T07:20:52;10.20;99.90
981;DHT22;479;53.514;9.994;2023-05-07T07:23:34;10.20;99.90
981;DHT22;479;53.514;9.994;2023-05-07T07:26:01;10.20;99.90
981;DHT22;479;53.514;9.994;2023-05-07T07:28:32;10.30;99.90
981;DHT22;479;53.514;9.994;2023-05-07T07:30:59;10.30;99.90
981;DHT22;479;53.514;9.994;2023-05-07T07:33:26;10.40;99.90
981;DHT22;479;53.514;9.994;2023-05-07T07:35:55;10.50;99.90
981;DHT22;479;53.514;9.994;2023-05-07T07:38:22;10.50;99.90
981;DHT22;479;53.514;9.994;2023-05-07T07:40:49;10.50;99.90
981;DHT22;479;53.514;9.994;2023-05-07T07:43:16;10.60;99.90
981;DHT22;479;53.514;9.994;2023-05-07T07:45:43;10.60;99.90
981;DHT22;479;53.514;9.994;2023-05-07T07:48:11;10.60;99.90
981;DHT22;479;53.514;9.994;2023-05-07T07:50:40;10.70;99.90
981;DHT22;479;53.514;9.994;2023-05-07T07:53:08;10.70;99.90
981;DHT22;479;53.514;9.994;2023-05-07T07:55:41;10.80;99.90
981;DHT22;479;53.514;9.994;2023-05-07T07:58:15;10.70;99.90
981;DHT22;479;53.514;9.994;2023-05-07T08:07:10;10.80;99.90
981;DHT22;479;53.514;9.994;2023-05-07T08:09:44;10.80;99.90
981;DHT22;479;53.514;9.994;2023-05-07T08:12:19;10.80;99.90
981;DHT22;479;53.514;9.994;2023-05-07T08:14:50;10.80;99.90
981;DHT22;479;53.514;9.994;2023-05-07T08:17:18;10.80;99.90
981;DHT22;479;53.514;9.994;2023-05-07T08:19:48;10.80;99.90
981;DHT22;479;53.514;9.994;2023-05-07T08:22:18;10.80;99.90
981;DHT22;479;53.514;9.994;2023-05-07T08:30:43;10.80;99.90
981;DHT22;479;53.514;9.994;2023-05-07T08:33:10;10.80;99.90
981;DHT22;479;53.514;9.994;2023-05-07T08:35:37;10.90;99.90
981;DHT22;479;53.514;9.994;2023-05-07T08:38:06;10.90;99.90
981;DHT22;479;53.514;9.994;2023-05-07T08:40:37;10.90;99.90
981;DHT22;479;53.514;9.994;2023-05-07T08:43:08;11.00;99.90
981;DHT22;479;53.514;9.994;2023-05-07T08:45:39;10.90;99.90
981;DHT22;479;53.514;9.994;2023-05-07T08:48:15;10.90;99.90
981;DHT22;479;53.514;9.994;2023-05-07T08:50:45;11.00;99.90
981;DHT22;479;53.514;9.994;2023-05-07T08:53:16;11.00;99.90
981;DHT22;479;53.514;9.994;2023-05-07T08:55:45;11.00;99.90
981;DHT22;479;53.514;9.994;2023-05-07T08:58:13;11.10;99.90
981;DHT22;479;53.514;9.994;2023-05-07T09:00:40;11.20;99.90
981;DHT22;479;53.514;9.994;2023-05-07T09:03:09;11.20;99.90
981;DHT22;479;53.514;9.994;2023-05-07T09:05:38;11.20;99.90
981;DHT22;479;53.514;9.994;2023-05-07T09:08:07;11.30;99.90
981;DHT22;479;53.514;9.994;2023-05-07T09:10:39;11.40;99.90
981;DHT22;479;53.514;9.994;2023-05-07T09:13:07;11.40;99.90
981;DHT22;479;53.514;9.994;2023-05-07T09:15:34;11.50;99.90
981;DHT22;479;53.514;9.994;2023-05-07T09:18:02;11.40;99.90
981;DHT22;479;53.514;9.994;2023-05-07T09:20:33;11.40;99.90
981;DHT22;479;53.514;9.994;2023-05-07T09:23:06;11.40;99.90
981;DHT22;479;53.514;9.994;2023-05-07T09:25:35;11.60;99.90
981;DHT22;479;53.514;9.994;2023-05-07T09:28:12;11.60;99.90
981;DHT22;479;53.514;9.994;2023-05-07T09:30:43;11.60;99.90
981;DHT22;479;53.514;9.994;2023-05-07T09:33:14;11.70;99.90
981;DHT22;479;53.514;9.994;2023-05-07T09:35:53;11.80;99.90
981;DHT22;479;53.514;9.994;2023-05-07T09:38:21;11.80;99.90
981;DHT22;479;53.514;9.994;2023-05-07T09:41:02;11.80;99.90
981;DHT22;479;53.514;9.994;2023-05-07T09:43:34;11.90;99.90
981;DHT22;479;53.514;9.994;2023-05-07T09:46:06;11.90;99.90
981;DHT22;479;53.514;9.994;2023-05-07T09:48:37;12.00;99.90
981;DHT22;479;53.514;9.994;2023-05-07T09:51:15;11.90;99.90
981;DHT22;479;53.514;9.994;2023-05-07T09:53:45;11.80;99.90
981;DHT22;479;53.514;9.994;2023-05-07T09:56:14;11.80;99.90
981;DHT22;479;53.514;9.994;2023-05-07T09:58:45;11.90;99.90
981;DHT22;479;53.514;9.994;2023-05-07T10:01:13;11.80;99.90
981;DHT22;479;53.514;9.994;2023-05-07T10:03:42;11.80;99.90
981;DHT22;479;53.514;9.994;2023-05-07T10:06:13;11.80;99.90
981;DHT22;479;53.514;9.994;2023-05-07T10:08:41;11.80;99.90
981;DHT22;479;53.514;9.994;2023-05-07T10:11:12;11.90;99.90
981;DHT22;479;53.514;9.994;2023-05-07T10:13:42;12.00;99.90
981;DHT22;479;53.514;9.994;2023-05-07T10:16:10;12.10;99.90
981;DHT22;479;53.514;9.994;2023-05-07T10:18:45;12.20;99.90
981;DHT22;479;53.514;9.994;2023-05-07T10:21:27;12.30;99.90
981;DHT22;479;53.514;9.994;2023-05-07T10:24:19;12.10;99.90
981;DHT22;479;53.514;9.994;2023-05-07T10:26:55;12.10;99.90
981;DHT22;479;53.514;9.994;2023-05-07T10:29:32;12.20;99.90
981;DHT22;479;53.514;9.994;2023-05-07T10:32:14;12.10;99.90
981;DHT22;479;53.514;9.994;2023-05-07T10:34:48;12.00;99.90
981;DHT22;479;53.514;9.994;2023-05-07T10:37:18;11.90;99.90
981;DHT22;479;53.514;9.994;2023-05-07T10:39:46;12.00;99.90
981;DHT22;479;53.514;9.994;2023-05-07T10:42:15;12.00;99.90
981;DHT22;479;53.514;9.994;2023-05-07T10:44:47;12.10;99.90
981;DHT22;479;53.514;9.994;2023-05-07T10:47:21;12.20;99.90
981;DHT22;479;53.514;9.994;2023-05-07T10:50:20;12.30;99.90
981;DHT22;479;53.514;9.994;2023-05-07T10:53:20;12.40;99.90
981;DHT22;479;53.514;9.994;2023-05-07T10:56:27;12.40;99.90
981;DHT22;479;53.514;9.994;2023-05-07T10:59:30;12.40;99.90
981;DHT22;479;53.514;9.994;2023-05-07T11:02:04;12.60;99.90
981;DHT22;479;53.514;9.994;2023-05-07T11:04:38;12.90;99.90
981;DHT22;479;53.514;9.994;2023-05-07T11:07:30;13.00;99.90
981;DHT22;479;53.514;9.994;2023-05-07T11:10:10;13.10;99.90
981;DHT22;479;53.514;9.994;2023-05-07T11:13:03;13.20;99.90
981;DHT22;479;53.514;9.994;2023-05-07T11:15:46;13.40;99.90
981;DHT22;479;53.514;9.994;2023-05-07T11:18:46;13.30;99.90
981;DHT22;479;53.514;9.994;2023-05-07T11:21:32;13.40;99.90
981;DHT22;479;53.514;9.994;2023-05-07T11:24:07;13.30;99.90
981;DHT22;479;53.514;9.994;2023-05-07T11:26:48;13.20;99.90
981;DHT22;479;53.514;9.994;2023-05-07T11:29:17;13.30;99.90
981;DHT22;479;53.514;9.994;2023-05-07T11:31:48;13.30;99.90
981;DHT22;479;53.514;9.994;2023-05-07T11:34:21;13.30;99.90
981;DHT22;479;53.514;9.994;2023-05-07T11:36:50;13.60;99.90
981;DHT22;479;53.514;9.994;2023-05-07T11:39:25;14.00;99.90
981;DHT22;479;53.514;9.994;2023-05-07T11:41:53;13.70;99.90
981;DHT22;479;53.514;9.994;2023-05-07T11:44:20;13.60;99.90
981;DHT22;479;53.514;9.994;2023-05-07T11:46:48;13.60;99.90
981;DHT22;479;53.514;9.994;2023-05-07T11:49:15;13.80;99.90
981;DHT22;479;53.514;9.994;2023-05-07T11:51:42;13.90;99.90
981;DHT22;479;53.514;9.994;2023-05-07T11:54:10;13.90;99.90
981;DHT22;479;53.514;9.994;2023-05-07T11:56:39;13.90;99.90
981;DHT22;479;53.514;9.994;2023-05-07T11:59:07;13.80;99.90
981;DHT22;479;53.514;9.994;2023-05-07T12:01:35;13.90;99.90
981;DHT22;479;53.514;9.994;2023-05-07T12:04:03;14.10;99.90
981;DHT22;479;53.514;9.994;2023-05-07T12:06:30;14.10;99.90
981;DHT22;479;53.514;9.994;2023-05-07T12:08:57;14.30;99.90
981;DHT22;479;53.514;9.994;2023-05-07T12:11:25;14.10;99.90
981;DHT22;479;53.514;9.994;2023-05-07T12:13:54;14.00;99.90
981;DHT22;479;53.514;9.994;2023-05-07T12:16:23;13.80;99.90
981;DHT22;479;53.514;9.994;2023-05-07T12:18:50;13.80;99.90
981;DHT22;479;53.514;9.994;2023-05-07T12:21:18;14.00;99.90
981;DHT22;479;53.514;9.994;2023-05-07T12:23:45;14.00;99.90
981;DHT22;479;53.514;9.994;2023-05-07T12:26:12;14.20;99.90
981;DHT22;479;53.514;9.994;2023-05-07T12:28:39;14.40;99.90
981;DHT22;479;53.514;9.994;2023-05-07T12:31:07;14.40;99.90
981;DHT22;479;53.514;9.994;2023-05-07T12:33:38;14.30;99.90
981;DHT22;479;53.514;9.994;2023-05-07T12:36:08;14.30;99.90
981;DHT22;479;53.514;9.994;2023-05-07T12:38:37;14.40;99.90
981;DHT22;479;53.514;9.994;2023-05-07T12:41:04;14.40;99.90
981;DHT22;479;53.514;9.994;2023-05-07T12:43:32;14.30;99.90
981;DHT22;479;53.514;9.994;2023-05-07T12:46:01;14.30;99.90
981;DHT22;479;53.514;9.994;2023-05-07T12:48:28;14.30;99.90
981;DHT22;479;53.514;9.994;2023-05-07T12:50:58;14.40;99.90
981;DHT22;479;53.514;9.994;2023-05-07T12:53:27;14.50;99.90
981;DHT22;479;53.514;9.994;2023-05-07T12:55:56;14.50;99.90
981;DHT22;479;53.514;9.994;2023-05-07T12:58:25;14.60;99.90
981;DHT22;479;53.514;9.994;2023-05-07T13:00:53;14.40;99.90
981;DHT22;479;53.514;9.994;2023-05-07T13:03:24;14.40;99.90
981;DHT22;479;53.514;9.994;2023-05-07T13:05:52;14.50;99.90
981;DHT22;479;53.514;9.994;2023-05-07T13:08:30;14.80;99.90
981;DHT22;479;53.514;9.994;2023-05-07T13:10:58;14.80;99.90
981;DHT22;479;53.514;9.994;2023-05-07T13:13:25;14.70;99.90
981;DHT22;479;53.514;9.994;2023-05-07T13:15:52;14.70;99.90
981;DHT22;479;53.514;9.994;2023-05-07T13:18:19;14.70;99.90
981;DHT22;479;53.514;9.994;2023-05-07T13:20:46;14.80;99.90
981;DHT22;479;53.514;9.994;2023-05-07T13:23:13;15.00;99.90
981;DHT22;479;53.514;9.994;2023-05-07T13:25:41;15.20;99.90
981;DHT22;479;53.514;9.994;2023-05-07T13:28:08;15.10;99.90
981;DHT22;479;53.514;9.994;2023-05-07T13:30:35;15.20;99.90
981;DHT22;479;53.514;9.994;2023-05-07T13:33:02;15.20;99.90
981;DHT22;479;53.514;9.994;2023-05-07T13:35:29;15.10;99.90
981;DHT22;479;53.514;9.994;2023-05-07T13:37:56;15.10;99.90
981;DHT22;479;53.514;9.994;2023-05-07T13:40:23;15.00;99.90
981;DHT22;479;53.514;9.994;2023-05-07T13:42:52;15.00;99.90
981;DHT22;479;53.514;9.994;2023-05-07T13:45:19;15.10;99.90
981;DHT22;479;53.514;9.994;2023-05-07T13:47:47;15.10;99.90
981;DHT22;479;53.514;9.994;2023-05-07T13:50:15;15.10;99.90
981;DHT22;479;53.514;9.994;2023-05-07T13:52:43;15.10;99.90
981;DHT22;479;53.514;9.994;2023-05-07T13:55:16;15.00;99.90
981;DHT22;479;53.514;9.994;2023-05-07T13:57:43;15.10;99.90
981;DHT22;479;53.514;9.994;2023-05-07T14:00:12;15.30;99.90
981;DHT22;479;53.514;9.994;2023-05-07T14:02:42;15.30;99.90
981;DHT22;479;53.514;9.994;2023-05-07T14:05:09;15.30;99.90
981;DHT22;479;53.514;9.994;2023-05-07T14:07:36;15.30;99.90
981;DHT22;479;53.514;9.994;2023-05-07T14:10:04;15.30;99.90
981;DHT22;479;53.514;9.994;2023-05-07T14:12:31;15.30;99.90
981;DHT22;479;53.514;9.994;2023-05-07T14:14:58;15.30;99.90
981;DHT22;479;53.514;9.994;2023-05-07T14:17:27;15.30;99.90
981;DHT22;479;53.514;9.994;2023-05-07T14:19:54;15.30;99.90
981;DHT22;479;53.514;9.994;2023-05-07T14:22:21;15.40;99.90
981;DHT22;479;53.514;9.994;2023-05-07T14:24:50;15.40;99.90
981;DHT22;479;53.514;9.994;2023-05-07T14:27:17;15.40;99.90
981;DHT22;479;53.514;9.994;2023-05-07T14:29:44;15.50;99.90
981;DHT22;479;53.514;9.994;2023-05-07T14:32:16;15.50;99.90
981;DHT22;479;53.514;9.994;2023-05-07T14:34:45;15.50;99.90
981;DHT22;479;53.514;9.994;2023-05-07T14:37:12;15.70;99.90
981;DHT22;479;53.514;9.994;2023-05-07T14:39:40;15.70;99.90
981;DHT22;479;53.514;9.994;2023-05-07T14:42:07;15.60;99.90
981;DHT22;479;53.514;9.994;2023-05-07T14:44:34;15.60;99.90
981;DHT22;479;53.514;9.994;2023-05-07T14:47:01;15.70;99.90
981;DHT22;479;53.514;9.994;2023-05-07T14:49:28;15.80;99.90
981;DHT22;479;53.514;9.994;2023-05-07T14:51:58;16.00;99.90
981;DHT22;479;53.514;9.994;2023-05-07T14:54:26;16.00;99.90
981;DHT22;479;53.514;9.994;2023-05-07T14:56:55;16.10;99.90
981;DHT22;479;53.514;9.994;2023-05-07T14:59:22;16.20;99.90
981;DHT22;479;53.514;9.994;2023-05-07T15:01:50;16.10;99.90
981;DHT22;479;53.514;9.994;2023-05-07T15:04:18;16.10;99.90
981;DHT22;479;53.514;9.994;2023-05-07T15:06:45;16.10;99.90
981;DHT22;479;53.514;9.994;2023-05-07T15:09:14;16.20;99.90
981;DHT22;479;53.514;9.994;2023-05-07T15:11:41;16.20;99.90
981;DHT22;479;53.514;9.994;2023-05-07T15:14:07;16.10;99.90
981;DHT22;479;53.514;9.994;2023-05-07T15:16:34;16.30;99.90
981;DHT22;479;53.514;9.994;2023-05-07T15:19:01;16.30;99.90
981;DHT22;479;53.514;9.994;2023-05-07T15:21:28;16.30;99.90
981;DHT22;479;53.514;9.994;2023-05-07T15:23:56;16.10;99.90
981;DHT22;479;53.514;9.994;2023-05-07T15:26:24;16.10;99.90
981;DHT22;479;53.514;9.994;2023-05-07T15:28:52;16.00;99.90
981;DHT22;479;53.514;9.994;2023-05-07T15:31:21;15.90;99.90
981;DHT22;479;53.514;9.994;2023-05-07T15:33:49;15.90;99.90
981;DHT22;479;53.514;9.994;2023-05-07T15:36:17;15.80;99.90
981;DHT22;479;53.514;9.994;2023-05-07T15:38:44;15.90;99.90
981;DHT22;479;53.514;9.994;2023-05-07T15:41:11;16.00;99.90
981;DHT22;479;53.514;9.994;2023-05-07T15:43:44;16.00;99.90
981;DHT22;479;53.514;9.994;2023-05-07T15:46:11;16.00;99.90
981;DHT22;479;53.514;9.994;2023-05-07T15:48:38;15.90;99.90
981;DHT22;479;53.514;9.994;2023-05-07T15:51:06;15.80;99.90
981;DHT22;479;53.514;9.994;2023-05-07T15:53:34;15.80;99.90
981;DHT22;479;53.514;9.994;2023-05-07T15:56:02;15.80;99.90
981;DHT22;479;53.514;9.994;2023-05-07T15:58:29;15.80;99.90
981;DHT22;479;53.514;9.994;2023-05-07T16:00:57;15.90;99.90
981;DHT22;479;53.514;9.994;2023-05-07T16:03:24;15.90;99.90
981;DHT22;479;53.514;9.994;2023-05-07T16:05:51;15.90;99.90
981;DHT22;479;53.514;9.994;2023-05-07T16:08:18;15.90;99.90
981;DHT22;479;53.514;9.994;2023-05-07T16:10:45;15.90;99.90
981;DHT22;479;53.514;9.994;2023-05-07T16:13:12;15.90;99.90
981;DHT22;479;53.514;9.994;2023-05-07T16:15:41;16.00;99.90
981;DHT22;479;53.514;9.994;2023-05-07T16:18:09;16.00;99.90
981;DHT22;479;53.514;9.994;2023-05-07T16:20:36;16.00;99.90
981;DHT22;479;53.514;9.994;2023-05-07T16:23:03;15.90;99.90
981;DHT22;479;53.514;9.994;2023-05-07T16:25:31;15.90;99.90
981;DHT22;479;53.514;9.994;2023-05-07T16:27:58;15.90;99.90
981;DHT22;479;53.514;9.994;2023-05-07T16:30:25;15.90;99.90
981;DHT22;479;53.514;9.994;2023-05-07T16:32:51;15.80;99.90
981;DHT22;479;53.514;9.994;2023-05-07T16:35:20;15.90;99.90
981;DHT22;479;53.514;9.994;2023-05-07T16:37:47;15.90;99.90
981;DHT22;479;53.514;9.994;2023-05-07T16:40:14;15.90;99.90
981;DHT22;479;53.514;9.994;2023-05-07T16:42:41;15.90;99.90
981;DHT22;479;53.514;9.994;2023-05-07T16:45:09;15.90;99.90
981;DHT22;479;53.514;9.994;2023-05-07T16:47:36;15.90;99.90
981;DHT22;479;53.514;9.994;2023-05-07T16:50:04;15.90;99.90
981;DHT22;479;53.514;9.994;2023-05-07T16:52:32;16.00;99.90
981;DHT22;479;53.514;9.994;2023-05-07T16:54:59;15.90;99.90
981;DHT22;479;53.514;9.994;2023-05-07T16:57:26;16.00;99.90
981;DHT22;479;53.514;9.994;2023-05-07T16:59:55;16.00;99.90
981;DHT22;479;53.514;9.994;2023-05-07T17:02:23;16.00;99.90
981;DHT22;479;53.514;9.994;2023-05-07T17:04:50;16.00;99.90
981;DHT22;479;53.514;9.994;2023-05-07T17:07:17;16.00;99.90